sensor_id;sensor_type;location;lat;lon;timestamp;P1;durP1;ratioP1;P2;durP2;ratioP2
73136;SDS011;67767;45.636;11.756;2023-02-14T00:02:08;95.73;;;44.70;;
73136;SDS011;67767;45.636;11.756;2023-02-14T00:04:34;93.88;;;42.63;;
73136;SDS011;67767;45.636;11.756;2023-02-14T00:07:02;87.93;;;41.10;;
73136;SDS011;67767;45.636;11.756;2023-02-14T00:09:29;88.60;;;40.78;;
73136;SDS011;67767;45.636;11.756;2023-02-14T00:11:55;83.20;;;40.37;;
73136;SDS011;67767;45.636;11.756;2023-02-14T00:14:21;88.50;;;42.33;;
73136;SDS011;67767;45.636;11.756;2023-02-14T00:17:05;82.55;;;39.95;;
73136;SDS011;67767;45.636;11.756;2023-02-14T00:19:30;79.60;;;40.00;;
73136;SDS011;67767;45.636;11.756;2023-02-14T00:21:58;85.95;;;38.92;;
73136;SDS011;67767;45.636;11.756;2023-02-14T00:24:24;84.47;;;38.17;;
73136;SDS011;67767;45.636;11.756;2023-02-14T00:26:51;74.32;;;38.58;;
73136;SDS011;67767;45.636;11.756;2023-02-14T00:29:19;70.90;;;34.63;;
73136;SDS011;67767;45.636;11.756;2023-02-14T00:31:49;76.78;;;35.85;;
73136;SDS011;67767;45.636;11.756;2023-02-14T00:34:15;79.60;;;37.70;;
73136;SDS011;67767;45.636;11.756;2023-02-14T00:36:42;74.15;;;37.25;;
73136;SDS011;67767;45.636;11.756;2023-02-14T00:39:10;76.40;;;38.80;;
73136;SDS011;67767;45.636;11.756;2023-02-14T00:41:37;77.80;;;36.97;;
73136;SDS011;67767;45.636;11.756;2023-02-14T00:44:04;86.80;;;40.55;;
73136;SDS011;67767;45.636;11.756;2023-02-14T00:46:31;77.50;;;37.10;;
73136;SDS011;67767;45.636;11.756;2023-02-14T00:48:57;85.10;;;37.83;;
73136;SDS011;67767;45.636;11.756;2023-02-14T00:51:23;74.83;;;34.90;;
73136;SDS011;67767;45.636;11.756;2023-02-14T00:53:49;78.93;;;36.83;;
73136;SDS011;67767;45.636;11.756;2023-02-14T00:56:15;71.93;;;36.42;;
73136;SDS011;67767;45.636;11.756;2023-02-14T00:58:42;73.95;;;36.40;;
73136;SDS011;67767;45.636;11.756;2023-02-14T01:01:08;65.35;;;34.83;;
73136;SDS011;67767;45.636;11.756;2023-02-14T01:03:35;69.93;;;35.63;;
73136;SDS011;67767;45.636;11.756;2023-02-14T01:06:01;66.47;;;34.55;;
73136;SDS011;67767;45.636;11.756;2023-02-14T01:08:27;76.07;;;35.88;;
73136;SDS011;67767;45.636;11.756;2023-02-14T01:10:52;74.37;;;36.30;;
73136;SDS011;67767;45.636;11.756;2023-02-14T01:13:18;68.70;;;33.78;;
73136;SDS011;67767;45.636;11.756;2023-02-14T01:15:45;74.10;;;35.70;;
73136;SDS011;67767;45.636;11.756;2023-02-14T01:18:12;75.97;;;37.17;;
73136;SDS011;67767;45.636;11.756;2023-02-14T01:20:39;74.93;;;37.03;;
73136;SDS011;67767;45.636;11.756;2023-02-14T01:23:05;72.38;;;37.63;;
73136;SDS011;67767;45.636;11.756;2023-02-14T01:25:31;70.88;;;34.42;;
73136;SDS011;67767;45.636;11.756;2023-02-14T01:27:57;66.53;;;33.77;;
73136;SDS011;67767;45.636;11.756;2023-02-14T01:30:23;72.32;;;34.92;;
73136;SDS011;67767;45.636;11.756;2023-02-14T01:32:49;69.00;;;35.40;;
73136;SDS011;67767;45.636;11.756;2023-02-14T01:35:15;67.03;;;34.30;;
73136;SDS011;67767;45.636;11.756;2023-02-14T01:37:41;65.15;;;32.63;;
73136;SDS011;67767;45.636;11.756;2023-02-14T01:40:08;70.70;;;32.97;;
73136;SDS011;67767;45.636;11.756;2023-02-14T01:42:36;66.18;;;34.13;;
73136;SDS011;67767;45.636;11.756;2023-02-14T01:45:06;67.47;;;34.38;;
73136;SDS011;67767;45.636;11.756;2023-02-14T01:47:43;72.13;;;35.00;;
73136;SDS011;67767;45.636;11.756;2023-02-14T01:50:22;73.07;;;35.30;;
73136;SDS011;67767;45.636;11.756;2023-02-14T01:53:01;72.57;;;36.63;;
73136;SDS011;67767;45.636;11.756;2023-02-14T01:55:34;72.43;;;35.97;;
73136;SDS011;67767;45.636;11.756;2023-02-14T01:58:36;70.45;;;35.33;;
73136;SDS011;67767;45.636;11.756;2023-02-14T02:00:58;67.70;;;34.63;;
73136;SDS011;67767;45.636;11.756;2023-02-14T02:06:00;71.78;;;34.25;;
73136;SDS011;67767;45.636;11.756;2023-02-14T02:08:33;72.28;;;35.33;;
73136;SDS011;67767;45.636;11.756;2023-02-14T02:11:04;69.70;;;33.63;;
73136;SDS011;67767;45.636;11.756;2023-02-14T02:13:30;68.10;;;34.07;;
73136;SDS011;67767;45.636;11.756;2023-02-14T02:21:44;65.13;;;33.70;;
73136;SDS011;67767;45.636;11.756;2023-02-14T02:24:22;63.73;;;32.20;;
73136;SDS011;67767;45.636;11.756;2023-02-14T02:32:40;69.65;;;33.70;;
73136;SDS011;67767;45.636;11.756;2023-02-14T02:43:14;69.88;;;33.85;;
73136;SDS011;67767;45.636;11.756;2023-02-14T02:52:27;67.97;;;33.50;;
73136;SDS011;67767;45.636;11.756;2023-02-14T02:55:29;60.97;;;31.85;;
73136;SDS011;67767;45.636;11.756;2023-02-14T02:58:42;68.88;;;32.40;;
73136;SDS011;67767;45.636;11.756;2023-02-14T03:01:16;63.97;;;32.40;;
73136;SDS011;67767;45.636;11.756;2023-02-14T03:03:46;69.30;;;33.58;;
73136;SDS011;67767;45.636;11.756;2023-02-14T03:06:32;68.20;;;33.13;;
73136;SDS011;67767;45.636;11.756;2023-02-14T03:14:25;73.00;;;33.63;;
73136;SDS011;67767;45.636;11.756;2023-02-14T03:17:02;70.75;;;33.33;;
73136;SDS011;67767;45.636;11.756;2023-02-14T03:25:10;67.47;;;33.40;;
73136;SDS011;67767;45.636;11.756;2023-02-14T03:27:48;80.32;;;37.88;;
73136;SDS011;67767;45.636;11.756;2023-02-14T03:30:27;69.10;;;34.40;;
73136;SDS011;67767;45.636;11.756;2023-02-14T03:33:09;71.00;;;35.60;;
73136;SDS011;67767;45.636;11.756;2023-02-14T03:36:19;71.82;;;33.75;;
73136;SDS011;67767;45.636;11.756;2023-02-14T03:38:36;74.93;;;37.92;;
73136;SDS011;67767;45.636;11.756;2023-02-14T03:41:08;76.82;;;36.25;;
73136;SDS011;67767;45.636;11.756;2023-02-14T03:43:40;74.20;;;37.30;;
73136;SDS011;67767;45.636;11.756;2023-02-14T03:49:00;73.10;;;36.03;;
73136;SDS011;67767;45.636;11.756;2023-02-14T03:51:30;76.88;;;37.45;;
73136;SDS011;67767;45.636;11.756;2023-02-14T03:54:00;76.03;;;36.13;;
73136;SDS011;67767;45.636;11.756;2023-02-14T03:56:36;71.00;;;35.88;;
73136;SDS011;67767;45.636;11.756;2023-02-14T03:59:23;74.40;;;37.23;;
73136;SDS011;67767;45.636;11.756;2023-02-14T04:01:52;72.97;;;35.55;;
73136;SDS011;67767;45.636;11.756;2023-02-14T04:04:39;77.75;;;35.60;;
73136;SDS011;67767;45.636;11.756;2023-02-14T04:07:09;78.50;;;36.60;;
73136;SDS011;67767;45.636;11.756;2023-02-14T04:09:35;73.28;;;35.40;;
73136;SDS011;67767;45.636;11.756;2023-02-14T04:12:00;76.57;;;36.60;;
73136;SDS011;67767;45.636;11.756;2023-02-14T04:14:26;71.53;;;36.20;;
73136;SDS011;67767;45.636;11.756;2023-02-14T04:16:54;76.35;;;35.83;;
73136;SDS011;67767;45.636;11.756;2023-02-14T04:19:38;68.80;;;35.25;;
73136;SDS011;67767;45.636;11.756;2023-02-14T04:22:04;69.30;;;33.60;;
73136;SDS011;67767;45.636;11.756;2023-02-14T04:24:29;69.25;;;34.88;;
73136;SDS011;67767;45.636;11.756;2023-02-14T04:26:55;79.47;;;34.53;;
73136;SDS011;67767;45.636;11.756;2023-02-14T04:29:36;75.57;;;35.42;;
73136;SDS011;67767;45.636;11.756;2023-02-14T04:32:08;73.15;;;34.45;;
73136;SDS011;67767;45.636;11.756;2023-02-14T04:34:36;76.15;;;33.92;;
73136;SDS011;67767;45.636;11.756;2023-02-14T04:37:02;73.67;;;32.63;;
73136;SDS011;67767;45.636;11.756;2023-02-14T04:39:28;69.72;;;32.50;;
73136;SDS011;67767;45.636;11.756;2023-02-14T04:41:54;68.68;;;33.55;;
73136;SDS011;67767;45.636;11.756;2023-02-14T04:44:20;64.95;;;30.35;;
73136;SDS011;67767;45.636;11.756;2023-02-14T04:46:46;62.17;;;28.93;;
73136;SDS011;67767;45.636;11.756;2023-02-14T04:49:12;55.40;;;28.30;;
73136;SDS011;67767;45.636;11.756;2023-02-14T04:51:37;55.37;;;27.50;;
73136;SDS011;67767;45.636;11.756;2023-02-14T04:54:03;63.88;;;29.13;;
73136;SDS011;67767;45.636;11.756;2023-02-14T04:56:29;63.33;;;28.43;;
73136;SDS011;67767;45.636;11.756;2023-02-14T04:58:54;58.80;;;28.40;;
73136;SDS011;67767;45.636;11.756;2023-02-14T05:01:20;57.10;;;27.43;;
73136;SDS011;67767;45.636;11.756;2023-02-14T05:03:46;56.73;;;26.87;;
73136;SDS011;67767;45.636;11.756;2023-02-14T05:06:11;56.63;;;26.17;;
73136;SDS011;67767;45.636;11.756;2023-02-14T05:08:37;56.93;;;28.43;;
73136;SDS011;67767;45.636;11.756;2023-02-14T05:11:02;60.60;;;28.80;;
73136;SDS011;67767;45.636;11.756;2023-02-14T05:13:28;57.17;;;28.20;;
73136;SDS011;67767;45.636;11.756;2023-02-14T05:15:55;57.00;;;27.17;;
73136;SDS011;67767;45.636;11.756;2023-02-14T05:18:22;64.82;;;29.30;;
73136;SDS011;67767;45.636;11.756;2023-02-14T05:20:49;56.63;;;27.50;;
73136;SDS011;67767;45.636;11.756;2023-02-14T05:23:18;72.13;;;32.30;;
73136;SDS011;67767;45.636;11.756;2023-02-14T05:25:48;105.60;;;40.73;;
73136;SDS011;67767;45.636;11.756;2023-02-14T05:28:14;74.88;;;33.75;;
73136;SDS011;67767;45.636;11.756;2023-02-14T05:30:40;59.55;;;29.38;;
73136;SDS011;67767;45.636;11.756;2023-02-14T05:33:06;60.97;;;28.53;;
73136;SDS011;67767;45.636;11.756;2023-02-14T05:35:32;62.88;;;28.77;;
73136;SDS011;67767;45.636;11.756;2023-02-14T05:37:58;57.35;;;28.50;;
73136;SDS011;67767;45.636;11.756;2023-02-14T05:40:24;59.33;;;28.53;;
73136;SDS011;67767;45.636;11.756;2023-02-14T05:42:51;59.42;;;28.02;;
73136;SDS011;67767;45.636;11.756;2023-02-14T05:45:17;56.75;;;27.92;;
73136;SDS011;67767;45.636;11.756;2023-02-14T05:47:43;60.85;;;27.98;;
73136;SDS011;67767;45.636;11.756;2023-02-14T05:50:09;56.50;;;26.70;;
73136;SDS011;67767;45.636;11.756;2023-02-14T05:52:35;61.75;;;28.08;;
73136;SDS011;67767;45.636;11.756;2023-02-14T05:55:01;60.03;;;28.20;;
73136;SDS011;67767;45.636;11.756;2023-02-14T05:57:28;63.10;;;30.10;;
73136;SDS011;67767;45.636;11.756;2023-02-14T05:59:54;59.03;;;28.53;;
73136;SDS011;67767;45.636;11.756;2023-02-14T06:02:19;66.63;;;32.42;;
73136;SDS011;67767;45.636;11.756;2023-02-14T06:04:45;68.17;;;34.10;;
73136;SDS011;67767;45.636;11.756;2023-02-14T06:07:11;72.55;;;35.53;;
73136;SDS011;67767;45.636;11.756;2023-02-14T06:09:36;73.17;;;35.93;;
73136;SDS011;67767;45.636;11.756;2023-02-14T06:12:02;69.72;;;33.33;;
73136;SDS011;67767;45.636;11.756;2023-02-14T06:14:28;70.27;;;31.97;;
73136;SDS011;67767;45.636;11.756;2023-02-14T06:16:53;76.53;;;32.83;;
73136;SDS011;67767;45.636;11.756;2023-02-14T06:19:19;72.23;;;33.90;;
73136;SDS011;67767;45.636;11.756;2023-02-14T06:21:45;75.10;;;35.08;;
73136;SDS011;67767;45.636;11.756;2023-02-14T06:24:10;91.30;;;35.83;;
73136;SDS011;67767;45.636;11.756;2023-02-14T06:26:36;78.90;;;36.13;;
73136;SDS011;67767;45.636;11.756;2023-02-14T06:29:02;69.67;;;30.47;;
73136;SDS011;67767;45.636;11.756;2023-02-14T06:31:28;65.32;;;30.80;;
73136;SDS011;67767;45.636;11.756;2023-02-14T06:33:54;63.88;;;29.67;;
73136;SDS011;67767;45.636;11.756;2023-02-14T06:36:20;60.20;;;30.03;;
73136;SDS011;67767;45.636;11.756;2023-02-14T06:38:47;65.22;;;30.70;;
73136;SDS011;67767;45.636;11.756;2023-02-14T06:41:13;75.50;;;33.35;;
73136;SDS011;67767;45.636;11.756;2023-02-14T06:43:41;92.70;;;36.17;;
73136;SDS011;67767;45.636;11.756;2023-02-14T06:46:07;112.00;;;43.15;;
73136;SDS011;67767;45.636;11.756;2023-02-14T06:48:33;109.50;;;40.17;;
73136;SDS011;67767;45.636;11.756;2023-02-14T06:50:59;103.50;;;40.15;;
73136;SDS011;67767;45.636;11.756;2023-02-14T06:53:25;121.60;;;40.63;;
73136;SDS011;67767;45.636;11.756;2023-02-14T06:55:50;113.18;;;38.03;;
73136;SDS011;67767;45.636;11.756;2023-02-14T06:58:16;116.60;;;41.88;;
73136;SDS011;67767;45.636;11.756;2023-02-14T07:00:42;136.00;;;48.53;;
73136;SDS011;67767;45.636;11.756;2023-02-14T07:03:07;154.93;;;47.47;;
73136;SDS011;67767;45.636;11.756;2023-02-14T07:05:33;143.43;;;48.50;;
73136;SDS011;67767;45.636;11.756;2023-02-14T07:07:59;131.73;;;45.08;;
73136;SDS011;67767;45.636;11.756;2023-02-14T07:10:25;145.65;;;44.25;;
73136;SDS011;67767;45.636;11.756;2023-02-14T07:12:51;173.10;;;45.70;;
73136;SDS011;67767;45.636;11.756;2023-02-14T07:15:16;151.37;;;47.23;;
73136;SDS011;67767;45.636;11.756;2023-02-14T07:17:42;143.40;;;44.80;;
73136;SDS011;67767;45.636;11.756;2023-02-14T07:20:10;129.27;;;42.38;;
73136;SDS011;67767;45.636;11.756;2023-02-14T07:22:37;132.23;;;45.80;;
73136;SDS011;67767;45.636;11.756;2023-02-14T07:25:03;108.97;;;40.88;;
73136;SDS011;67767;45.636;11.756;2023-02-14T07:27:31;104.23;;;42.33;;
73136;SDS011;67767;45.636;11.756;2023-02-14T07:29:57;91.50;;;39.00;;
73136;SDS011;67767;45.636;11.756;2023-02-14T07:32:22;94.60;;;39.15;;
73136;SDS011;67767;45.636;11.756;2023-02-14T07:34:49;91.13;;;38.77;;
73136;SDS011;67767;45.636;11.756;2023-02-14T07:37:15;79.97;;;36.42;;
73136;SDS011;67767;45.636;11.756;2023-02-14T07:39:41;88.82;;;37.95;;
73136;SDS011;67767;45.636;11.756;2023-02-14T07:42:08;82.57;;;36.83;;
73136;SDS011;67767;45.636;11.756;2023-02-14T07:44:34;80.40;;;37.45;;
73136;SDS011;67767;45.636;11.756;2023-02-14T07:47:03;85.37;;;35.40;;
73136;SDS011;67767;45.636;11.756;2023-02-14T07:49:29;74.97;;;35.60;;
73136;SDS011;67767;45.636;11.756;2023-02-14T07:51:55;76.20;;;35.20;;
73136;SDS011;67767;45.636;11.756;2023-02-14T07:54:21;74.80;;;35.63;;
73136;SDS011;67767;45.636;11.756;2023-02-14T07:56:46;80.78;;;39.92;;
73136;SDS011;67767;45.636;11.756;2023-02-14T07:59:12;63.83;;;33.10;;
73136;SDS011;67767;45.636;11.756;2023-02-14T08:01:38;68.65;;;33.03;;
73136;SDS011;67767;45.636;11.756;2023-02-14T08:04:03;64.27;;;33.13;;
73136;SDS011;67767;45.636;11.756;2023-02-14T08:06:29;62.03;;;33.10;;
73136;SDS011;67767;45.636;11.756;2023-02-14T08:08:55;65.97;;;34.20;;
73136;SDS011;67767;45.636;11.756;2023-02-14T08:11:20;67.40;;;33.67;;
73136;SDS011;67767;45.636;11.756;2023-02-14T08:14:04;67.55;;;34.35;;
73136;SDS011;67767;45.636;11.756;2023-02-14T08:16:30;69.78;;;33.78;;
73136;SDS011;67767;45.636;11.756;2023-02-14T08:18:59;68.07;;;32.90;;
73136;SDS011;67767;45.636;11.756;2023-02-14T08:21:26;63.67;;;32.05;;
73136;SDS011;67767;45.636;11.756;2023-02-14T08:23:52;54.27;;;27.70;;
73136;SDS011;67767;45.636;11.756;2023-02-14T08:26:17;56.03;;;30.38;;
73136;SDS011;67767;45.636;11.756;2023-02-14T08:28:43;52.67;;;29.47;;
73136;SDS011;67767;45.636;11.756;2023-02-14T08:31:09;53.00;;;28.58;;
73136;SDS011;67767;45.636;11.756;2023-02-14T08:33:35;56.92;;;29.25;;
73136;SDS011;67767;45.636;11.756;2023-02-14T08:36:01;48.87;;;27.27;;
73136;SDS011;67767;45.636;11.756;2023-02-14T08:38:27;54.38;;;27.98;;
73136;SDS011;67767;45.636;11.756;2023-02-14T08:40:53;51.05;;;28.05;;
73136;SDS011;67767;45.636;11.756;2023-02-14T08:43:23;47.72;;;25.77;;
73136;SDS011;67767;45.636;11.756;2023-02-14T08:45:52;53.37;;;26.63;;
73136;SDS011;67767;45.636;11.756;2023-02-14T08:48:18;48.20;;;25.45;;
73136;SDS011;67767;45.636;11.756;2023-02-14T08:50:44;54.40;;;28.27;;
73136;SDS011;67767;45.636;11.756;2023-02-14T08:53:10;54.03;;;27.55;;
73136;SDS011;67767;45.636;11.756;2023-02-14T08:55:37;46.00;;;26.10;;
73136;SDS011;67767;45.636;11.756;2023-02-14T08:58:04;53.27;;;28.03;;
73136;SDS011;67767;45.636;11.756;2023-02-14T09:00:31;57.15;;;28.95;;
73136;SDS011;67767;45.636;11.756;2023-02-14T09:02:57;51.35;;;28.65;;
73136;SDS011;67767;45.636;11.756;2023-02-14T09:05:23;55.53;;;26.65;;
73136;SDS011;67767;45.636;11.756;2023-02-14T09:07:50;51.13;;;28.05;;
73136;SDS011;67767;45.636;11.756;2023-02-14T09:10:16;55.13;;;26.23;;
73136;SDS011;67767;45.636;11.756;2023-02-14T09:12:43;52.10;;;25.80;;
73136;SDS011;67767;45.636;11.756;2023-02-14T09:15:09;49.88;;;26.98;;
73136;SDS011;67767;45.636;11.756;2023-02-14T09:17:36;48.15;;;25.30;;
73136;SDS011;67767;45.636;11.756;2023-02-14T09:20:02;48.55;;;25.38;;
73136;SDS011;67767;45.636;11.756;2023-02-14T09:22:30;46.20;;;23.97;;
73136;SDS011;67767;45.636;11.756;2023-02-14T09:24:56;50.30;;;25.52;;
73136;SDS011;67767;45.636;11.756;2023-02-14T09:27:22;42.35;;;22.95;;
73136;SDS011;67767;45.636;11.756;2023-02-14T09:29:48;38.80;;;21.63;;
73136;SDS011;67767;45.636;11.756;2023-02-14T09:32:14;48.47;;;25.52;;
73136;SDS011;67767;45.636;11.756;2023-02-14T09:34:40;40.60;;;23.90;;
73136;SDS011;67767;45.636;11.756;2023-02-14T09:37:24;45.50;;;23.17;;
73136;SDS011;67767;45.636;11.756;2023-02-14T09:39:50;47.53;;;23.35;;
73136;SDS011;67767;45.636;11.756;2023-02-14T09:45:00;43.55;;;23.15;;
73136;SDS011;67767;45.636;11.756;2023-02-14T09:47:55;45.53;;;22.90;;
73136;SDS011;67767;45.636;11.756;2023-02-14T09:50:39;46.83;;;24.02;;
73136;SDS011;67767;45.636;11.756;2023-02-14T09:55:52;40.30;;;21.80;;
73136;SDS011;67767;45.636;11.756;2023-02-14T09:58:44;40.30;;;21.77;;
73136;SDS011;67767;45.636;11.756;2023-02-14T10:01:24;39.03;;;20.35;;
73136;SDS011;67767;45.636;11.756;2023-02-14T10:06:42;38.90;;;20.73;;
73136;SDS011;67767;45.636;11.756;2023-02-14T10:12:25;43.15;;;23.00;;
73136;SDS011;67767;45.636;11.756;2023-02-14T10:14:52;36.83;;;21.13;;
73136;SDS011;67767;45.636;11.756;2023-02-14T10:17:24;34.45;;;19.52;;
73136;SDS011;67767;45.636;11.756;2023-02-14T10:20:00;37.80;;;19.50;;
73136;SDS011;67767;45.636;11.756;2023-02-14T10:22:37;35.97;;;18.23;;
73136;SDS011;67767;45.636;11.756;2023-02-14T10:25:13;36.03;;;19.30;;
73136;SDS011;67767;45.636;11.756;2023-02-14T10:27:44;31.90;;;18.60;;
73136;SDS011;67767;45.636;11.756;2023-02-14T10:30:15;30.83;;;17.95;;
73136;SDS011;67767;45.636;11.756;2023-02-14T10:32:49;38.77;;;19.37;;
73136;SDS011;67767;45.636;11.756;2023-02-14T10:49:46;30.83;;;18.10;;
73136;SDS011;67767;45.636;11.756;2023-02-14T10:52:33;33.00;;;17.42;;
73136;SDS011;67767;45.636;11.756;2023-02-14T10:55:16;41.40;;;17.63;;
73136;SDS011;67767;45.636;11.756;2023-02-14T10:57:47;29.85;;;16.50;;
73136;SDS011;67767;45.636;11.756;2023-02-14T11:00:27;32.23;;;18.60;;
73136;SDS011;67767;45.636;11.756;2023-02-14T11:02:57;36.13;;;20.00;;
73136;SDS011;67767;45.636;11.756;2023-02-14T11:05:26;37.63;;;19.38;;
73136;SDS011;67767;45.636;11.756;2023-02-14T11:08:13;34.42;;;19.73;;
73136;SDS011;67767;45.636;11.756;2023-02-14T11:10:45;37.90;;;20.58;;
73136;SDS011;67767;45.636;11.756;2023-02-14T11:13:27;41.43;;;22.53;;
73136;SDS011;67767;45.636;11.756;2023-02-14T11:16:04;41.00;;;22.30;;
73136;SDS011;67767;45.636;11.756;2023-02-14T11:18:35;37.33;;;21.80;;
73136;SDS011;67767;45.636;11.756;2023-02-14T11:23:41;36.40;;;21.97;;
73136;SDS011;67767;45.636;11.756;2023-02-14T11:26:22;38.53;;;22.73;;
73136;SDS011;67767;45.636;11.756;2023-02-14T11:31:40;43.10;;;26.20;;
73136;SDS011;67767;45.636;11.756;2023-02-14T11:34:30;35.55;;;21.75;;
73136;SDS011;67767;45.636;11.756;2023-02-14T11:36:52;36.30;;;21.87;;
73136;SDS011;67767;45.636;11.756;2023-02-14T11:39:24;35.22;;;20.70;;
73136;SDS011;67767;45.636;11.756;2023-02-14T11:41:58;33.92;;;20.98;;
73136;SDS011;67767;45.636;11.756;2023-02-14T11:44:28;34.75;;;21.63;;
73136;SDS011;67767;45.636;11.756;2023-02-14T11:46:57;35.85;;;20.25;;
73136;SDS011;67767;45.636;11.756;2023-02-14T11:49:42;33.63;;;20.10;;
73136;SDS011;67767;45.636;11.756;2023-02-14T11:52:22;31.58;;;19.60;;
73136;SDS011;67767;45.636;11.756;2023-02-14T11:54:51;32.35;;;19.50;;
73136;SDS011;67767;45.636;11.756;2023-02-14T11:57:27;38.20;;;22.13;;
73136;SDS011;67767;45.636;11.756;2023-02-14T11:59:57;35.03;;;20.95;;
73136;SDS011;67767;45.636;11.756;2023-02-14T12:04:54;37.08;;;21.70;;
73136;SDS011;67767;45.636;11.756;2023-02-14T12:07:25;36.83;;;22.63;;
73136;SDS011;67767;45.636;11.756;2023-02-14T12:23:39;38.27;;;22.60;;
73136;SDS011;67767;45.636;11.756;2023-02-14T12:26:56;36.47;;;22.35;;
73136;SDS011;67767;45.636;11.756;2023-02-14T12:31:28;35.63;;;21.33;;
73136;SDS011;67767;45.636;11.756;2023-02-14T12:33:54;37.78;;;21.92;;
73136;SDS011;67767;45.636;11.756;2023-02-14T12:36:32;38.63;;;21.90;;
73136;SDS011;67767;45.636;11.756;2023-02-14T12:45:08;34.58;;;20.73;;
73136;SDS011;67767;45.636;11.756;2023-02-14T12:48:10;34.75;;;21.17;;
73136;SDS011;67767;45.636;11.756;2023-02-14T12:50:54;33.00;;;20.38;;
73136;SDS011;67767;45.636;11.756;2023-02-14T13:01:41;33.13;;;20.52;;
73136;SDS011;67767;45.636;11.756;2023-02-14T13:06:47;37.88;;;21.02;;
73136;SDS011;67767;45.636;11.756;2023-02-14T13:09:28;31.63;;;20.40;;
73136;SDS011;67767;45.636;11.756;2023-02-14T13:12:06;32.15;;;19.95;;
73136;SDS011;67767;45.636;11.756;2023-02-14T13:17:28;34.57;;;21.67;;
73136;SDS011;67767;45.636;11.756;2023-02-14T13:20:03;33.30;;;20.48;;
73136;SDS011;67767;45.636;11.756;2023-02-14T13:22:45;36.10;;;21.15;;
73136;SDS011;67767;45.636;11.756;2023-02-14T13:25:16;36.70;;;22.95;;
73136;SDS011;67767;45.636;11.756;2023-02-14T13:27:46;38.30;;;22.30;;
73136;SDS011;67767;45.636;11.756;2023-02-14T13:30:23;35.77;;;22.93;;
73136;SDS011;67767;45.636;11.756;2023-02-14T13:32:52;38.33;;;22.27;;
73136;SDS011;67767;45.636;11.756;2023-02-14T13:35:24;40.38;;;24.58;;
73136;SDS011;67767;45.636;11.756;2023-02-14T13:37:57;39.17;;;24.33;;
73136;SDS011;67767;45.636;11.756;2023-02-14T13:40:32;41.22;;;24.30;;
73136;SDS011;67767;45.636;11.756;2023-02-14T13:43:00;36.33;;;23.20;;
73136;SDS011;67767;45.636;11.756;2023-02-14T13:48:04;37.40;;;23.05;;
73136;SDS011;67767;45.636;11.756;2023-02-14T13:50:39;39.55;;;23.55;;
73136;SDS011;67767;45.636;11.756;2023-02-14T14:06:29;38.80;;;24.23;;
73136;SDS011;67767;45.636;11.756;2023-02-14T14:09:15;43.23;;;24.60;;
73136;SDS011;67767;45.636;11.756;2023-02-14T14:12:52;34.25;;;23.77;;
73136;SDS011;67767;45.636;11.756;2023-02-14T14:17:33;39.60;;;25.00;;
73136;SDS011;67767;45.636;11.756;2023-02-14T14:19:59;36.90;;;23.70;;
73136;SDS011;67767;45.636;11.756;2023-02-14T14:22:26;49.57;;;37.73;;
73136;SDS011;67767;45.636;11.756;2023-02-14T14:24:57;90.82;;;59.25;;
73136;SDS011;67767;45.636;11.756;2023-02-14T14:27:31;39.97;;;27.45;;
73136;SDS011;67767;45.636;11.756;2023-02-14T14:30:06;38.08;;;24.88;;
73136;SDS011;67767;45.636;11.756;2023-02-14T14:32:43;46.78;;;29.55;;
73136;SDS011;67767;45.636;11.756;2023-02-14T14:35:16;38.97;;;24.80;;
73136;SDS011;67767;45.636;11.756;2023-02-14T14:37:45;46.92;;;30.52;;
73136;SDS011;67767;45.636;11.756;2023-02-14T14:42:53;42.28;;;24.80;;
73136;SDS011;67767;45.636;11.756;2023-02-14T14:45:27;37.47;;;23.80;;
73136;SDS011;67767;45.636;11.756;2023-02-14T14:47:55;37.43;;;24.13;;
73136;SDS011;67767;45.636;11.756;2023-02-14T14:50:24;39.65;;;24.42;;
73136;SDS011;67767;45.636;11.756;2023-02-14T14:53:02;41.38;;;26.35;;
73136;SDS011;67767;45.636;11.756;2023-02-14T14:55:31;49.22;;;28.77;;
73136;SDS011;67767;45.636;11.756;2023-02-14T14:58:00;48.83;;;29.75;;
73136;SDS011;67767;45.636;11.756;2023-02-14T15:00:32;47.73;;;28.13;;
73136;SDS011;67767;45.636;11.756;2023-02-14T15:03:01;52.58;;;28.85;;
73136;SDS011;67767;45.636;11.756;2023-02-14T15:05:48;55.75;;;34.75;;
73136;SDS011;67767;45.636;11.756;2023-02-14T15:10:47;50.72;;;30.63;;
73136;SDS011;67767;45.636;11.756;2023-02-14T15:13:18;51.07;;;29.63;;
73136;SDS011;67767;45.636;11.756;2023-02-14T15:16:15;50.33;;;28.92;;
73136;SDS011;67767;45.636;11.756;2023-02-14T15:18:42;56.28;;;30.23;;
73136;SDS011;67767;45.636;11.756;2023-02-14T15:21:08;55.45;;;30.38;;
73136;SDS011;67767;45.636;11.756;2023-02-14T15:23:34;49.53;;;28.37;;
73136;SDS011;67767;45.636;11.756;2023-02-14T15:25:59;46.13;;;26.42;;
73136;SDS011;67767;45.636;11.756;2023-02-14T15:28:29;51.03;;;28.20;;
73136;SDS011;67767;45.636;11.756;2023-02-14T15:31:01;52.20;;;28.60;;
73136;SDS011;67767;45.636;11.756;2023-02-14T15:33:29;49.20;;;28.63;;
73136;SDS011;67767;45.636;11.756;2023-02-14T15:36:05;53.55;;;28.65;;
73136;SDS011;67767;45.636;11.756;2023-02-14T15:38:40;50.22;;;28.63;;
73136;SDS011;67767;45.636;11.756;2023-02-14T15:41:06;50.27;;;29.27;;
73136;SDS011;67767;45.636;11.756;2023-02-14T15:43:34;51.42;;;28.02;;
73136;SDS011;67767;45.636;11.756;2023-02-14T15:48:51;59.63;;;29.90;;
73136;SDS011;67767;45.636;11.756;2023-02-14T15:51:21;57.35;;;29.25;;
73136;SDS011;67767;45.636;11.756;2023-02-14T15:53:56;63.10;;;30.07;;
73136;SDS011;67767;45.636;11.756;2023-02-14T15:56:24;56.15;;;28.75;;
73136;SDS011;67767;45.636;11.756;2023-02-14T15:59:04;50.75;;;27.42;;
73136;SDS011;67767;45.636;11.756;2023-02-14T16:01:36;54.50;;;27.50;;
73136;SDS011;67767;45.636;11.756;2023-02-14T16:04:03;50.38;;;27.98;;
73136;SDS011;67767;45.636;11.756;2023-02-14T16:06:37;54.00;;;28.07;;
73136;SDS011;67767;45.636;11.756;2023-02-14T16:09:25;50.17;;;28.00;;
73136;SDS011;67767;45.636;11.756;2023-02-14T16:11:52;51.00;;;27.38;;
73136;SDS011;67767;45.636;11.756;2023-02-14T16:14:40;51.53;;;28.27;;
73136;SDS011;67767;45.636;11.756;2023-02-14T16:22:07;74.18;;;40.15;;
73136;SDS011;67767;45.636;11.756;2023-02-14T16:24:34;70.50;;;36.50;;
73136;SDS011;67767;45.636;11.756;2023-02-14T16:27:02;74.40;;;37.97;;
73136;SDS011;67767;45.636;11.756;2023-02-14T16:29:31;72.10;;;38.13;;
73136;SDS011;67767;45.636;11.756;2023-02-14T16:32:07;74.30;;;37.35;;
73136;SDS011;67767;45.636;11.756;2023-02-14T16:34:35;67.53;;;36.17;;
73136;SDS011;67767;45.636;11.756;2023-02-14T16:37:05;65.57;;;36.20;;
73136;SDS011;67767;45.636;11.756;2023-02-14T16:39:33;64.68;;;34.55;;
73136;SDS011;67767;45.636;11.756;2023-02-14T16:41:59;65.00;;;33.47;;
73136;SDS011;67767;45.636;11.756;2023-02-14T16:44:27;62.78;;;33.72;;
73136;SDS011;67767;45.636;11.756;2023-02-14T16:46:53;57.33;;;31.52;;
73136;SDS011;67767;45.636;11.756;2023-02-14T16:49:19;66.33;;;31.67;;
73136;SDS011;67767;45.636;11.756;2023-02-14T16:51:46;64.43;;;30.55;;